sensor_id;sensor_type;location;lat;lon;timestamp;pressure;altitude;pressure_sealevel;temperature;humidity
68169;BME280;54981;50.206;15.978;2023-09-19T00:02:17;98257.97;;;18.48;100.00
68169;BME280;54981;50.206;15.978;2023-09-19T00:04:47;98245.31;;;18.48;100.00
68169;BME280;54981;50.206;15.978;2023-09-19T00:07:18;98242.94;;;18.45;100.00
68169;BME280;54981;50.206;15.978;2023-09-19T00:09:49;98256.66;;;18.52;100.00
68169;BME280;54981;50.206;15.978;2023-09-19T00:12:19;98269.00;;;18.55;100.00
68169;BME280;54981;50.206;15.978;2023-09-19T00:14:50;98274.06;;;18.58;100.00
68169;BME280;54981;50.206;15.978;2023-09-19T00:17:21;98278.00;;;18.63;100.00
68169;BME280;54981;50.206;15.978;2023-09-19T00:19:52;98285.25;;;18.63;100.00
68169;BME280;54981;50.206;15.978;2023-09-19T00:22:22;98283.94;;;18.67;100.00
68169;BME280;54981;50.206;15.978;2023-09-19T00:24:52;98285.69;;;18.58;100.00
68169;BME280;54981;50.206;15.978;2023-09-19T00:27:23;98277.22;;;18.53;100.00
68169;BME280;54981;50.206;15.978;2023-09-19T00:29:54;98277.75;;;18.57;100.00
68169;BME280;54981;50.206;15.978;2023-09-19T00:32:24;98281.50;;;18.46;100.00
68169;BME280;54981;50.206;15.978;2023-09-19T00:34:55;98274.88;;;18.40;100.00
68169;BME280;54981;50.206;15.978;2023-09-19T00:37:26;98274.59;;;18.43;100.00
68169;BME280;54981;50.206;15.978;2023-09-19T00:39:56;98271.44;;;18.48;100.00
68169;BME280;54981;50.206;15.978;2023-09-19T00:42:27;98281.06;;;18.50;100.00
68169;BME280;54981;50.206;15.978;2023-09-19T00:44:58;98278.69;;;18.47;100.00
68169;BME280;54981;50.206;15.978;2023-09-19T00:47:28;98263.66;;;18.45;100.00
68169;BME280;54981;50.206;15.978;2023-09-19T00:50:00;98276.88;;;18.38;100.00
68169;BME280;54981;50.206;15.978;2023-09-19T00:52:30;98261.94;;;18.44;100.00
68169;BME280;54981;50.206;15.978;2023-09-19T00:55:03;98269.09;;;18.35;100.00
68169;BME280;54981;50.206;15.978;2023-09-19T00:57:35;98261.34;;;18.22;100.00
68169;BME280;54981;50.206;15.978;2023-09-19T01:00:08;98263.25;;;18.12;100.00
68169;BME280;54981;50.206;15.978;2023-09-19T01:02:42;98259.00;;;18.09;100.00
68169;BME280;54981;50.206;15.978;2023-09-19T01:05:13;98255.91;;;18.04;100.00
68169;BME280;54981;50.206;15.978;2023-09-19T01:07:44;98254.16;;;18.13;100.00
68169;BME280;54981;50.206;15.978;2023-09-19T01:10:17;98253.88;;;18.16;100.00
68169;BME280;54981;50.206;15.978;2023-09-19T01:16:32;98261.78;;;18.18;100.00
68169;BME280;54981;50.206;15.978;2023-09-19T01:19:53;98257.88;;;18.12;100.00
68169;BME280;54981;50.206;15.978;2023-09-19T01:22:21;98255.31;;;18.10;100.00
68169;BME280;54981;50.206;15.978;2023-09-19T01:30:58;98256.31;;;18.09;100.00
68169;BME280;54981;50.206;15.978;2023-09-19T01:33:56;98264.09;;;18.13;100.00
68169;BME280;54981;50.206;15.978;2023-09-19T01:36:35;98266.09;;;18.10;100.00
68169;BME280;54981;50.206;15.978;2023-09-19T01:39:07;98269.78;;;18.09;100.00
68169;BME280;54981;50.206;15.978;2023-09-19T01:42:06;98269.22;;;18.06;100.00
68169;BME280;54981;50.206;15.978;2023-09-19T01:44:54;98264.97;;;18.03;100.00
68169;BME280;54981;50.206;15.978;2023-09-19T01:47:48;98263.44;;;18.01;100.00
68169;BME280;54981;50.206;15.978;2023-09-19T01:50:30;98264.44;;;18.00;100.00
68169;BME280;54981;50.206;15.978;2023-09-19T01:53:05;98264.72;;;18.06;100.00
68169;BME280;54981;50.206;15.978;2023-09-19T01:55:43;98268.13;;;17.99;100.00
68169;BME280;54981;50.206;15.978;2023-09-19T01:58:29;98267.88;;;17.92;100.00
68169;BME280;54981;50.206;15.978;2023-09-19T02:01:03;98272.97;;;17.95;100.00
68169;BME280;54981;50.206;15.978;2023-09-19T02:03:36;98279.91;;;17.98;100.00
68169;BME280;54981;50.206;15.978;2023-09-19T02:06:07;98274.09;;;17.93;100.00
68169;BME280;54981;50.206;15.978;2023-09-19T02:08:41;98273.28;;;17.92;100.00
68169;BME280;54981;50.206;15.978;2023-09-19T02:11:12;98272.44;;;17.82;100.00
68169;BME280;54981;50.206;15.978;2023-09-19T02:13:43;98274.69;;;17.77;100.00
68169;BME280;54981;50.206;15.978;2023-09-19T02:16:16;98267.22;;;17.71;100.00
68169;BME280;54981;50.206;15.978;2023-09-19T02:18:48;98267.47;;;17.67;100.00
68169;BME280;54981;50.206;15.978;2023-09-19T02:21:19;98267.91;;;17.63;100.00
68169;BME280;54981;50.206;15.978;2023-09-19T02:23:51;98262.56;;;17.53;100.00
68169;BME280;54981;50.206;15.978;2023-09-19T02:26:22;98254.66;;;17.52;100.00
68169;BME280;54981;50.206;15.978;2023-09-19T02:28:57;98261.16;;;17.49;100.00
68169;BME280;54981;50.206;15.978;2023-09-19T02:31:27;98267.81;;;17.45;100.00
68169;BME280;54981;50.206;15.978;2023-09-19T02:33:59;98265.84;;;17.37;100.00
68169;BME280;54981;50.206;15.978;2023-09-19T02:36:30;98271.97;;;17.30;100.00
68169;BME280;54981;50.206;15.978;2023-09-19T02:39:01;98269.00;;;17.23;100.00
68169;BME280;54981;50.206;15.978;2023-09-19T02:41:31;98266.00;;;17.16;100.00
68169;BME280;54981;50.206;15.978;2023-09-19T02:44:03;98276.06;;;17.14;100.00
68169;BME280;54981;50.206;15.978;2023-09-19T02:46:37;98275.22;;;17.04;100.00
68169;BME280;54981;50.206;15.978;2023-09-19T02:49:08;98269.00;;;16.94;100.00
68169;BME280;54981;50.206;15.978;2023-09-19T02:51:38;98270.66;;;16.75;100.00
68169;BME280;54981;50.206;15.978;2023-09-19T02:54:09;98279.88;;;16.82;100.00
68169;BME280;54981;50.206;15.978;2023-09-19T02:56:39;98284.81;;;16.77;100.00
68169;BME280;54981;50.206;15.978;2023-09-19T02:59:10;98268.81;;;16.76;100.00
68169;BME280;54981;50.206;15.978;2023-09-19T03:01:43;98272.38;;;16.76;100.00
68169;BME280;54981;50.206;15.978;2023-09-19T03:04:14;98268.66;;;16.77;100.00
68169;BME280;54981;50.206;15.978;2023-09-19T03:06:49;98276.59;;;16.69;100.00
68169;BME280;54981;50.206;15.978;2023-09-19T03:09:21;98273.44;;;16.64;100.00
68169;BME280;54981;50.206;15.978;2023-09-19T03:11:52;98273.03;;;16.59;100.00
68169;BME280;54981;50.206;15.978;2023-09-19T03:14:22;98270.72;;;16.45;100.00
68169;BME280;54981;50.206;15.978;2023-09-19T03:16:53;98272.28;;;16.37;100.00
68169;BME280;54981;50.206;15.978;2023-09-19T03:19:24;98271.56;;;16.35;100.00
68169;BME280;54981;50.206;15.978;2023-09-19T03:21:56;98268.31;;;16.32;100.00
68169;BME280;54981;50.206;15.978;2023-09-19T03:24:27;98277.72;;;16.07;100.00
68169;BME280;54981;50.206;15.978;2023-09-19T03:26:59;98279.84;;;16.13;100.00
68169;BME280;54981;50.206;15.978;2023-09-19T03:29:29;98269.69;;;16.16;100.00
68169;BME280;54981;50.206;15.978;2023-09-19T03:32:00;98272.66;;;16.23;100.00
68169;BME280;54981;50.206;15.978;2023-09-19T03:34:31;98281.72;;;16.22;100.00
68169;BME280;54981;50.206;15.978;2023-09-19T03:37:02;98279.59;;;16.26;100.00
68169;BME280;54981;50.206;15.978;2023-09-19T03:39:32;98289.09;;;16.30;100.00
68169;BME280;54981;50.206;15.978;2023-09-19T03:42:03;98297.34;;;16.48;100.00
68169;BME280;54981;50.206;15.978;2023-09-19T03:44:37;98281.22;;;16.48;100.00
68169;BME280;54981;50.206;15.978;2023-09-19T03:47:08;98285.50;;;16.60;100.00
68169;BME280;54981;50.206;15.978;2023-09-19T03:49:38;98290.03;;;16.69;100.00
68169;BME280;54981;50.206;15.978;2023-09-19T03:52:09;98289.16;;;16.69;100.00
68169;BME280;54981;50.206;15.978;2023-09-19T03:54:39;98290.03;;;16.69;100.00
68169;BME280;54981;50.206;15.978;2023-09-19T03:57:11;98288.03;;;16.71;100.00
68169;BME280;54981;50.206;15.978;2023-09-19T03:59:43;98286.34;;;16.70;100.00
68169;BME280;54981;50.206;15.978;2023-09-19T04:02:13;98290.72;;;16.71;100.00
68169;BME280;54981;50.206;15.978;2023-09-19T04:04:52;98295.66;;;16.66;100.00
68169;BME280;54981;50.206;15.978;2023-09-19T04:07:22;98301.34;;;16.73;100.00
68169;BME280;54981;50.206;15.978;2023-09-19T04:09:53;98300.22;;;16.75;100.00
68169;BME280;54981;50.206;15.978;2023-09-19T04:12:23;98296.09;;;16.71;100.00
68169;BME280;54981;50.206;15.978;2023-09-19T04:14:54;98291.19;;;16.76;100.00
68169;BME280;54981;50.206;15.978;2023-09-19T04:17:24;98297.16;;;16.80;100.00
68169;BME280;54981;50.206;15.978;2023-09-19T04:19:54;98300.38;;;16.83;100.00
68169;BME280;54981;50.206;15.978;2023-09-19T04:22:25;98296.03;;;16.82;100.00
68169;BME280;54981;50.206;15.978;2023-09-19T04:24:55;98303.38;;;16.80;100.00
68169;BME280;54981;50.206;15.978;2023-09-19T04:27:26;98298.25;;;16.77;100.00
68169;BME280;54981;50.206;15.978;2023-09-19T04:29:58;98296.31;;;16.79;100.00
68169;BME280;54981;50.206;15.978;2023-09-19T04:32:29;98295.31;;;16.80;100.00
68169;BME280;54981;50.206;15.978;2023-09-19T04:34:59;98303.38;;;16.90;100.00
68169;BME280;54981;50.206;15.978;2023-09-19T04:37:33;98300.38;;;16.83;100.00
68169;BME280;54981;50.206;15.978;2023-09-19T04:40:08;98296.84;;;16.83;100.00
68169;BME280;54981;50.206;15.978;2023-09-19T04:42:54;98305.09;;;16.81;100.00
68169;BME280;54981;50.206;15.978;2023-09-19T04:45:28;98306.72;;;16.73;100.00
68169;BME280;54981;50.206;15.978;2023-09-19T04:47:59;98311.53;;;16.69;100.00
68169;BME280;54981;50.206;15.978;2023-09-19T04:50:29;98306.16;;;16.69;100.00
68169;BME280;54981;50.206;15.978;2023-09-19T04:53:00;98306.16;;;16.69;100.00
68169;BME280;54981;50.206;15.978;2023-09-19T04:55:31;98308.69;;;16.71;100.00
68169;BME280;54981;50.206;15.978;2023-09-19T04:58:03;98316.91;;;16.69;100.00
68169;BME280;54981;50.206;15.978;2023-09-19T05:00:34;98316.03;;;16.69;100.00
68169;BME280;54981;50.206;15.978;2023-09-19T05:03:05;98318.03;;;16.67;100.00
68169;BME280;54981;50.206;15.978;2023-09-19T05:05:36;98319.16;;;16.64;100.00
68169;BME280;54981;50.206;15.978;2023-09-19T05:08:08;98320.88;;;16.65;100.00
68169;BME280;54981;50.206;15.978;2023-09-19T05:10:39;98312.38;;;16.60;100.00
68169;BME280;54981;50.206;15.978;2023-09-19T05:13:10;98323.56;;;16.65;100.00
68169;BME280;54981;50.206;15.978;2023-09-19T05:15:42;98328.66;;;16.78;100.00
68169;BME280;54981;50.206;15.978;2023-09-19T05:18:12;98331.81;;;16.83;100.00
68169;BME280;54981;50.206;15.978;2023-09-19T05:20:42;98325.72;;;16.91;100.00
68169;BME280;54981;50.206;15.978;2023-09-19T05:23:14;98328.59;;;16.99;100.00
68169;BME280;54981;50.206;15.978;2023-09-19T05:25:44;98340.47;;;16.87;100.00
68169;BME280;54981;50.206;15.978;2023-09-19T05:28:14;98340.19;;;16.90;100.00
68169;BME280;54981;50.206;15.978;2023-09-19T05:30:45;98337.91;;;16.95;100.00
68169;BME280;54981;50.206;15.978;2023-09-19T05:33:16;98343.88;;;16.98;100.00
68169;BME280;54981;50.206;15.978;2023-09-19T05:35:48;98343.88;;;16.98;100.00
68169;BME280;54981;50.206;15.978;2023-09-19T05:38:19;98344.44;;;17.02;100.00
68169;BME280;54981;50.206;15.978;2023-09-19T05:40:50;98353.22;;;17.04;100.00
68169;BME280;54981;50.206;15.978;2023-09-19T05:43:20;98355.63;;;17.07;100.00
68169;BME280;54981;50.206;15.978;2023-09-19T05:45:51;98356.75;;;17.14;100.00
68169;BME280;54981;50.206;15.978;2023-09-19T05:48:22;98362.31;;;17.22;100.00
68169;BME280;54981;50.206;15.978;2023-09-19T05:50:52;98361.19;;;17.35;100.00
68169;BME280;54981;50.206;15.978;2023-09-19T05:53:22;98364.59;;;17.37;100.00
68169;BME280;54981;50.206;15.978;2023-09-19T05:55:53;98366.28;;;17.38;100.00
68169;BME280;54981;50.206;15.978;2023-09-19T05:58:24;98382.84;;;17.43;100.00
68169;BME280;54981;50.206;15.978;2023-09-19T06:00:54;98381.56;;;17.47;100.00
68169;BME280;54981;50.206;15.978;2023-09-19T06:03:25;98385.09;;;17.48;100.00
68169;BME280;54981;50.206;15.978;2023-09-19T06:05:56;98376.19;;;17.47;100.00
68169;BME280;54981;50.206;15.978;2023-09-19T06:08:27;98377.88;;;17.48;100.00
68169;BME280;54981;50.206;15.978;2023-09-19T06:10:59;98385.69;;;17.51;100.00
68169;BME280;54981;50.206;15.978;2023-09-19T06:13:29;98389.94;;;17.54;100.00
68169;BME280;54981;50.206;15.978;2023-09-19T06:16:00;98393.75;;;17.51;100.00
68169;BME280;54981;50.206;15.978;2023-09-19T06:18:35;98395.59;;;17.51;100.00
68169;BME280;54981;50.206;15.978;2023-09-19T06:21:06;98402.25;;;17.56;100.00
68169;BME280;54981;50.206;15.978;2023-09-19T06:23:37;98410.75;;;17.52;100.00
68169;BME280;54981;50.206;15.978;2023-09-19T06:26:08;98407.34;;;17.59;100.00
68169;BME280;54981;50.206;15.978;2023-09-19T06:28:40;98406.81;;;17.65;100.00
68169;BME280;54981;50.206;15.978;2023-09-19T06:31:11;98410.47;;;17.74;100.00
68169;BME280;54981;50.206;15.978;2023-09-19T06:33:41;98419.25;;;17.76;100.00
68169;BME280;54981;50.206;15.978;2023-09-19T06:36:13;98423.78;;;17.76;100.00
68169;BME280;54981;50.206;15.978;2023-09-19T06:38:43;98416.84;;;17.73;100.00
68169;BME280;54981;50.206;15.978;2023-09-19T06:41:13;98416.28;;;17.89;100.00
68169;BME280;54981;50.206;15.978;2023-09-19T06:43:47;98421.84;;;17.87;100.00
68169;BME280;54981;50.206;15.978;2023-09-19T06:46:17;98424.38;;;17.89;100.00
68169;BME280;54981;50.206;15.978;2023-09-19T06:48:48;98425.50;;;17.96;100.00
68169;BME280;54981;50.206;15.978;2023-09-19T06:51:19;98434.69;;;18.03;100.00
68169;BME280;54981;50.206;15.978;2023-09-19T06:53:50;98432.88;;;18.04;100.00
68169;BME280;54981;50.206;15.978;2023-09-19T06:56:21;98435.28;;;18.07;100.00
68169;BME280;54981;50.206;15.978;2023-09-19T06:58:54;98438.50;;;18.10;100.00
68169;BME280;54981;50.206;15.978;2023-09-19T07:01:25;98445.72;;;18.20;100.00
68169;BME280;54981;50.206;15.978;2023-09-19T07:03:56;98444.88;;;18.19;100.00
68169;BME280;54981;50.206;15.978;2023-09-19T07:06:26;98456.19;;;18.33;100.00
68169;BME280;54981;50.206;15.978;2023-09-19T07:08:56;98451.78;;;18.41;100.00
68169;BME280;54981;50.206;15.978;2023-09-19T07:11:27;98452.34;;;18.45;100.00
68169;BME280;54981;50.206;15.978;2023-09-19T07:13:57;98448.72;;;18.26;100.00
68169;BME280;54981;50.206;15.978;2023-09-19T07:16:28;98456.88;;;18.44;100.00
68169;BME280;54981;50.206;15.978;2023-09-19T07:19:00;98458.75;;;18.34;100.00
68169;BME280;54981;50.206;15.978;2023-09-19T07:21:32;98457.22;;;18.22;100.00
68169;BME280;54981;50.206;15.978;2023-09-19T07:24:03;98458.09;;;18.03;100.00
68169;BME280;54981;50.206;15.978;2023-09-19T07:26:34;98459.81;;;18.14;100.00
68169;BME280;54981;50.206;15.978;2023-09-19T07:29:04;98468.31;;;17.99;100.00
68169;BME280;54981;50.206;15.978;2023-09-19T07:31:36;98464.59;;;18.20;100.00
68169;BME280;54981;50.206;15.978;2023-09-19T07:34:07;98468.41;;;18.27;100.00
68169;BME280;54981;50.206;15.978;2023-09-19T07:36:38;98475.75;;;18.35;100.00
68169;BME280;54981;50.206;15.978;2023-09-19T07:39:09;98474.59;;;18.47;100.00
68169;BME280;54981;50.206;15.978;2023-09-19T07:41:40;98475.28;;;18.59;100.00
68169;BME280;54981;50.206;15.978;2023-09-19T07:44:10;98473.28;;;18.61;100.00
68169;BME280;54981;50.206;15.978;2023-09-19T07:46:41;98471.00;;;18.66;100.00
68169;BME280;54981;50.206;15.978;2023-09-19T07:49:11;98470.72;;;18.79;100.00
68169;BME280;54981;50.206;15.978;2023-09-19T07:51:41;98474.56;;;19.04;100.00
68169;BME280;54981;50.206;15.978;2023-09-19T07:54:12;98482.47;;;19.15;100.00
68169;BME280;54981;50.206;15.978;2023-09-19T07:56:43;98478.38;;;19.11;100.00
68169;BME280;54981;50.206;15.978;2023-09-19T07:59:13;98474.78;;;19.20;100.00
68169;BME280;54981;50.206;15.978;2023-09-19T08:01:43;98476.84;;;19.26;100.00
68169;BME280;54981;50.206;15.978;2023-09-19T08:04:14;98481.47;;;19.16;100.00
68169;BME280;54981;50.206;15.978;2023-09-19T08:06:45;98482.53;;;19.05;100.00
68169;BME280;54981;50.206;15.978;2023-09-19T08:09:15;98484.69;;;19.29;100.00
68169;BME280;54981;50.206;15.978;2023-09-19T08:11:50;98485.66;;;19.28;100.00
68169;BME280;54981;50.206;15.978;2023-09-19T08:14:21;98495.06;;;19.24;100.00
68169;BME280;54981;50.206;15.978;2023-09-19T08:16:56;98498.94;;;19.12;100.00
68169;BME280;54981;50.206;15.978;2023-09-19T08:19:27;98494.53;;;18.93;100.00
68169;BME280;54981;50.206;15.978;2023-09-19T08:21:58;98504.75;;;18.89;100.00
68169;BME280;54981;50.206;15.978;2023-09-19T08:24:29;98505.59;;;18.90;100.00
68169;BME280;54981;50.206;15.978;2023-09-19T08:26:59;98504.03;;;18.87;100.00
68169;BME280;54981;50.206;15.978;2023-09-19T08:29:30;98498.75;;;18.96;100.00
68169;BME280;54981;50.206;15.978;2023-09-19T08:32:01;98503.91;;;19.16;100.00
68169;BME280;54981;50.206;15.978;2023-09-19T08:34:31;98499.09;;;19.38;100.00
68169;BME280;54981;50.206;15.978;2023-09-19T08:37:04;98506.63;;;19.62;100.00
68169;BME280;54981;50.206;15.978;2023-09-19T08:39:34;98503.34;;;19.41;100.00
68169;BME280;54981;50.206;15.978;2023-09-19T08:42:07;98498.84;;;19.59;100.00
68169;BME280;54981;50.206;15.978;2023-09-19T08:44:38;98499.88;;;19.94;100.00
68169;BME280;54981;50.206;15.978;2023-09-19T08:47:11;98509.66;;;19.77;100.00
68169;BME280;54981;50.206;15.978;2023-09-19T08:49:57;98513.56;;;19.47;100.00
68169;BME280;54981;50.206;15.978;2023-09-19T08:52:40;98510.25;;;19.25;100.00
68169;BME280;54981;50.206;15.978;2023-09-19T08:55:13;98510.19;;;19.17;100.00
68169;BME280;54981;50.206;15.978;2023-09-19T08:57:51;98513.06;;;19.06;100.00
68169;BME280;54981;50.206;15.978;2023-09-19T09:00:23;98508.69;;;18.95;100.00
68169;BME280;54981;50.206;15.978;2023-09-19T09:02:57;98515.94;;;18.94;100.00
68169;BME280;54981;50.206;15.978;2023-09-19T09:05:29;98516.91;;;19.03;100.00
68169;BME280;54981;50.206;15.978;2023-09-19T09:08:00;98517.44;;;19.07;100.00
68169;BME280;54981;50.206;15.978;2023-09-19T09:10:32;98519.28;;;19.06;100.00
68169;BME280;54981;50.206;15.978;2023-09-19T09:13:03;98518.16;;;19.09;100.00
68169;BME280;54981;50.206;15.978;2023-09-19T09:15:36;98524.66;;;19.44;100.00
68169;BME280;54981;50.206;15.978;2023-09-19T09:18:07;98517.56;;;19.88;100.00
68169;BME280;54981;50.206;15.978;2023-09-19T09:20:38;98531.84;;;19.81;100.00
68169;BME280;54981;50.206;15.978;2023-09-19T09:23:08;98533.91;;;19.69;100.00
68169;BME280;54981;50.206;15.978;2023-09-19T09:25:54;98533.16;;;19.49;100.00
68169;BME280;54981;50.206;15.978;2023-09-19T09:28:27;98541.53;;;19.46;100.00
68169;BME280;54981;50.206;15.978;2023-09-19T09:30:59;98542.63;;;19.53;100.00
68169;BME280;54981;50.206;15.978;2023-09-19T09:33:30;98534.09;;;19.85;100.00
68169;BME280;54981;50.206;15.978;2023-09-19T09:36:02;98534.47;;;20.26;100.00
68169;BME280;54981;50.206;15.978;2023-09-19T09:38:46;98529.53;;;20.92;100.00
68169;BME280;54981;50.206;15.978;2023-09-19T09:41:18;98534.81;;;20.93;100.00
68169;BME280;54981;50.206;15.978;2023-09-19T09:44:16;98532.75;;;20.43;100.00
68169;BME280;54981;50.206;15.978;2023-09-19T09:46:48;98540.34;;;20.04;100.00
68169;BME280;54981;50.206;15.978;2023-09-19T09:49:25;98543.91;;;20.04;100.00
68169;BME280;54981;50.206;15.978;2023-09-19T09:52:05;98541.09;;;20.50;100.00
68169;BME280;54981;50.206;15.978;2023-09-19T09:55:05;98540.63;;;20.54;100.00
68169;BME280;54981;50.206;15.978;2023-09-19T09:57:37;98535.97;;;20.64;100.00
68169;BME280;54981;50.206;15.978;2023-09-19T10:00:11;98541.53;;;20.63;100.00
68169;BME280;54981;50.206;15.978;2023-09-19T10:02:42;98540.47;;;20.38;100.00
68169;BME280;54981;50.206;15.978;2023-09-19T10:05:16;98540.91;;;20.51;100.00
68169;BME280;54981;50.206;15.978;2023-09-19T10:07:53;98545.75;;;20.83;100.00
68169;BME280;54981;50.206;15.978;2023-09-19T10:10:37;98549.19;;;20.68;100.00
68169;BME280;54981;50.206;15.978;2023-09-19T10:13:12;98545.41;;;20.42;100.00
68169;BME280;54981;50.206;15.978;2023-09-19T10:15:48;98553.91;;;20.30;100.00
68169;BME280;54981;50.206;15.978;2023-09-19T10:18:23;98554.91;;;20.47;100.00
68169;BME280;54981;50.206;15.978;2023-09-19T10:20:54;98563.66;;;20.84;100.00
68169;BME280;54981;50.206;15.978;2023-09-19T10:23:26;98558.47;;;20.65;100.00
68169;BME280;54981;50.206;15.978;2023-09-19T10:26:01;98552.50;;;20.88;100.00
68169;BME280;54981;50.206;15.978;2023-09-19T10:28:32;98552.03;;;21.18;100.00
68169;BME280;54981;50.206;15.978;2023-09-19T10:31:03;98552.38;;;21.23;100.00
68169;BME280;54981;50.206;15.978;2023-09-19T10:33:36;98547.63;;;21.43;100.00
68169;BME280;54981;50.206;15.978;2023-09-19T10:36:08;98547.91;;;21.40;100.00
68169;BME280;54981;50.206;15.978;2023-09-19T10:38:43;98540.00;;;21.47;100.00
68169;BME280;54981;50.206;15.978;2023-09-19T10:41:15;98545.59;;;21.54;100.00
68169;BME280;54981;50.206;15.978;2023-09-19T10:43:48;98537.84;;;21.67;100.00
68169;BME280;54981;50.206;15.978;2023-09-19T10:46:18;98531.09;;;21.71;100.00
68169;BME280;54981;50.206;15.978;2023-09-19T10:48:50;98539.38;;;21.61;100.00
68169;BME280;54981;50.206;15.978;2023-09-19T10:51:24;98542.22;;;21.60;100.00
68169;BME280;54981;50.206;15.978;2023-09-19T10:54:18;98539.94;;;21.04;100.00
68169;BME280;54981;50.206;15.978;2023-09-19T10:56:51;98532.06;;;21.45;100.00
68169;BME280;54981;50.206;15.978;2023-09-19T10:59:23;98540.47;;;21.42;100.00
68169;BME280;54981;50.206;15.978;2023-09-19T11:01:57;98550.69;;;21.22;100.00
68169;BME280;54981;50.206;15.978;2023-09-19T11:04:29;98550.47;;;21.08;100.00
68169;BME280;54981;50.206;15.978;2023-09-19T11:07:10;98549.41;;;21.00;100.00
68169;BME280;54981;50.206;15.978;2023-09-19T11:14:59;98544.22;;;21.41;100.00
68169;BME280;54981;50.206;15.978;2023-09-19T11:30:52;98544.50;;;21.38;100.00
68169;BME280;54981;50.206;15.978;2023-09-19T11:33:30;98546.41;;;21.12;100.00
68169;BME280;54981;50.206;15.978;2023-09-19T11:36:11;98547.63;;;20.83;100.00
68169;BME280;54981;50.206;15.978;2023-09-19T11:46:57;98546.47;;;20.94;100.00
68169;BME280;54981;50.206;15.978;2023-09-19T11:49:30;98552.16;;;20.82;100.00
68169;BME280;54981;50.206;15.978;2023-09-19T11:52:02;98553.16;;;20.81;100.00
68169;BME280;54981;50.206;15.978;2023-09-19T11:54:39;98548.38;;;21.01;100.00
68169;BME280;54981;50.206;15.978;2023-09-19T11:57:20;98552.84;;;21.11;100.00
68169;BME280;54981;50.206;15.978;2023-09-19T11:59:50;98549.72;;;21.32;100.00
68169;BME280;54981;50.206;15.978;2023-09-19T12:02:47;98553.03;;;21.52;100.00
68169;BME280;54981;50.206;15.978;2023-09-19T12:05:17;98550.34;;;21.60;100.00
68169;BME280;54981;50.206;15.978;2023-09-19T12:07:52;98550.47;;;22.17;100.00
68169;BME280;54981;50.206;15.978;2023-09-19T12:10:22;98543.56;;;22.72;100.00
68169;BME280;54981;50.206;15.978;2023-09-19T12:12:53;98538.22;;;23.20;100.00
68169;BME280;54981;50.206;15.978;2023-09-19T12:15:27;98544.38;;;22.97;100.00
68169;BME280;54981;50.206;15.978;2023-09-19T12:18:04;98544.41;;;22.56;100.00
68169;BME280;54981;50.206;15.978;2023-09-19T12:20:44;98539.63;;;22.17;100.00
68169;BME280;54981;50.206;15.978;2023-09-19T12:23:19;98537.94;;;21.91;100.00
68169;BME280;54981;50.206;15.978;2023-09-19T12:25:49;98538.56;;;21.85;100.00
68169;BME280;54981;50.206;15.978;2023-09-19T12:28:25;98542.97;;;21.70;100.00
68169;BME280;54981;50.206;15.978;2023-09-19T12:30:56;98541.84;;;21.46;100.00
68169;BME280;54981;50.206;15.978;2023-09-19T12:33:27;98540.38;;;21.26;100.00
68169;BME280;54981;50.206;15.978;2023-09-19T12:35:58;98540.91;;;20.95;100.00
68169;BME280;54981;50.206;15.978;2023-09-19T12:38:29;98540.91;;;20.95;100.00
68169;BME280;54981;50.206;15.978;2023-09-19T12:40:59;98534.28;;;21.24;100.00
68169;BME280;54981;50.206;15.978;2023-09-19T12:43:31;98534.56;;;21.47;100.00
68169;BME280;54981;50.206;15.978;2023-09-19T12:46:03;98539.03;;;21.64;100.00
68169;BME280;54981;50.206;15.978;2023-09-19T12:48:35;98534.28;;;21.58;100.00
68169;BME280;54981;50.206;15.978;2023-09-19T12:51:09;98535.13;;;21.67;100.00
68169;BME280;54981;50.206;15.978;2023-09-19T12:53:44;98531.34;;;22.19;100.00
68169;BME280;54981;50.206;15.978;2023-09-19T12:56:16;98528.13;;;22.56;100.00
68169;BME280;54981;50.206;15.978;2023-09-19T12:58:55;98527.09;;;22.98;100.00
68169;BME280;54981;50.206;15.978;2023-09-19T13:01:27;98534.47;;;23.29;100.00
68169;BME280;54981;50.206;15.978;2023-09-19T13:04:20;98542.88;;;22.53;100.00
68169;BME280;54981;50.206;15.978;2023-09-19T13:06:56;98533.69;;;22.05;100.00
68169;BME280;54981;50.206;15.978;2023-09-19T13:09:30;98527.09;;;22.08;100.00
68169;BME280;54981;50.206;15.978;2023-09-19T13:12:37;98523.66;;;22.96;100.00
68169;BME280;54981;50.206;15.978;2023-09-19T13:15:13;98520.47;;;22.92;100.00
68169;BME280;54981;50.206;15.978;2023-09-19T13:17:46;98527.84;;;23.31;100.00
68169;BME280;54981;50.206;15.978;2023-09-19T13:20:23;98517.97;;;23.70;100.00
68169;BME280;54981;50.206;15.978;2023-09-19T13:22:57;98508.91;;;24.09;100.00
68169;BME280;54981;50.206;15.978;2023-09-19T13:25:38;98497.44;;;24.36;100.00
68169;BME280;54981;50.206;15.978;2023-09-19T13:28:10;98495.09;;;24.33;100.00
68169;BME280;54981;50.206;15.978;2023-09-19T13:30:40;98488.53;;;24.65;100.00
68169;BME280;54981;50.206;15.978;2023-09-19T13:33:15;98491.28;;;24.19;100.00
68169;BME280;54981;50.206;15.978;2023-09-19T13:35:51;98495.16;;;24.48;100.00
68169;BME280;54981;50.206;15.978;2023-09-19T13:38:21;98487.22;;;24.91;100.00
68169;BME280;54981;50.206;15.978;2023-09-19T13:40:52;98482.50;;;25.44;100.00
68169;BME280;54981;50.206;15.978;2023-09-19T13:43:22;98482.41;;;25.53;100.00
68169;BME280;54981;50.206;15.978;2023-09-19T13:45:55;98485.25;;;25.96;100.00
68169;BME280;54981;50.206;15.978;2023-09-19T13:48:28;98484.66;;;25.85;98.11